createdAt,value
2022-10-09T00:01:04.166Z,84.12
2022-10-09T00:03:31.213Z,83.85
2022-10-09T00:05:58.731Z,84.48
2022-10-09T00:08:26.015Z,84.43
2022-10-09T00:10:53.143Z,84.75
2022-10-09T00:13:20.440Z,84.33
2022-10-09T00:15:47.861Z,83.75
2022-10-09T00:18:17.741Z,84.25
2022-10-09T00:20:46.792Z,84.83
2022-10-09T00:23:16.703Z,83.97
2022-10-09T00:25:54.217Z,84.56
2022-10-09T00:28:23.356Z,83.95
2022-10-09T00:30:50.701Z,84.10
2022-10-09T00:33:17.861Z,84.58
2022-10-09T00:35:44.814Z,84.55
2022-10-09T00:38:12.593Z,84.71
2022-10-09T00:40:39.694Z,84.24
2022-10-09T00:43:18.789Z,84.66
2022-10-09T00:45:54.551Z,84.54
2022-10-09T00:48:22.818Z,84.40
2022-10-09T00:50:59.466Z,85.43
2022-10-09T00:53:28.703Z,85.56
2022-10-09T00:55:56.171Z,84.77
2022-10-09T00:58:24.838Z,85.20
2022-10-09T01:00:52.392Z,85.89
2022-10-09T01:03:19.395Z,86.03
2022-10-09T01:05:55.196Z,85.78
2022-10-09T01:08:31.638Z,85.77
2022-10-09T01:11:04.264Z,85.20
2022-10-09T01:14:04.538Z,86.65
2022-10-09T01:16:43.170Z,85.82
2022-10-09T01:19:22.675Z,85.81
2022-10-09T01:21:56.775Z,85.84
2022-10-09T01:24:38.712Z,86.21
2022-10-09T01:27:15.540Z,86.54
2022-10-09T01:30:04.797Z,86.70
2022-10-09T01:32:36.754Z,87.14
2022-10-09T01:35:06.096Z,86.46
2022-10-09T01:37:34.764Z,85.94
2022-10-09T01:40:04.538Z,87.26
2022-10-09T01:42:32.585Z,87.80
2022-10-09T01:44:59.767Z,87.43
2022-10-09T01:47:27.105Z,86.91
2022-10-09T01:50:26.376Z,87.03
2022-10-09T01:53:10.447Z,87.61
2022-10-09T01:56:07.439Z,87.49
2022-10-09T01:58:40.064Z,88.18
2022-10-09T02:01:17.229Z,88.18
2022-10-09T02:03:48.067Z,88.32
2022-10-09T02:06:16.735Z,88.59
2022-10-09T02:08:47.081Z,88.22
2022-10-09T02:11:15.300Z,88.35
2022-10-09T02:13:43.839Z,88.30
2022-10-09T02:16:37.547Z,88.74
2022-10-09T02:19:16.491Z,88.57
2022-10-09T02:21:51.341Z,88.44
2022-10-09T02:24:24.399Z,88.35
2022-10-09T02:26:54.218Z,88.50
2022-10-09T02:29:21.895Z,87.69
2022-10-09T02:31:49.098Z,87.26
2022-10-09T02:34:20.230Z,88.27
2022-10-09T02:36:48.268Z,87.64
2022-10-09T02:39:15.428Z,87.38
2022-10-09T02:41:42.405Z,88.15
2022-10-09T02:44:22.048Z,87.66
2022-10-09T02:46:49.289Z,88.30
2022-10-09T02:49:16.234Z,87.67
2022-10-09T02:51:43.230Z,87.80
2022-10-09T02:54:10.487Z,87.12
2022-10-09T02:56:39.071Z,87.73
2022-10-09T02:59:06.928Z,87.82
2022-10-09T03:01:33.889Z,87.70
2022-10-09T03:04:00.811Z,87.35
2022-10-09T03:06:30.559Z,87.00
2022-10-09T03:08:57.595Z,87.72
2022-10-09T03:11:25.592Z,87.83
2022-10-09T03:13:52.659Z,87.70
2022-10-09T03:16:25.091Z,87.13
2022-10-09T03:18:53.110Z,87.88
2022-10-09T03:21:25.608Z,87.65
2022-10-09T03:23:53.526Z,87.30
2022-10-09T03:26:23.348Z,87.60
2022-10-09T03:28:51.757Z,88.41
2022-10-09T03:34:08.316Z,88.62
2022-10-09T03:36:35.191Z,88.56
2022-10-09T03:39:02.087Z,88.82
2022-10-09T03:41:29.031Z,88.29
2022-10-09T03:43:55.875Z,87.21
2022-10-09T03:46:22.814Z,87.46
2022-10-09T03:48:49.780Z,87.55
2022-10-09T03:51:16.784Z,87.73
2022-10-09T03:53:43.679Z,87.59
2022-10-09T03:56:10.610Z,86.70
2022-10-09T03:58:37.457Z,87.54
2022-10-09T04:01:04.444Z,88.02
2022-10-09T04:03:31.636Z,87.45
2022-10-09T04:05:58.470Z,87.79
2022-10-09T04:08:25.420Z,87.47
2022-10-09T04:10:59.796Z,87.47
2022-10-09T04:13:27.132Z,87.22
2022-10-09T04:15:55.066Z,86.38
2022-10-09T04:18:22.552Z,86.70
2022-10-09T04:20:51.334Z,86.42
2022-10-09T04:23:19.074Z,86.87
2022-10-09T04:25:46.519Z,86.81
2022-10-09T04:28:14.084Z,86.90
2022-10-09T04:30:41.415Z,86.09
2022-10-09T04:33:12.767Z,85.97
2022-10-09T04:35:43.691Z,86.27
2022-10-09T04:38:11.134Z,85.95
2022-10-09T04:40:38.069Z,86.30
2022-10-09T04:43:04.979Z,85.52
2022-10-09T04:45:32.259Z,85.87
2022-10-09T04:47:59.396Z,85.34
2022-10-09T04:50:26.289Z,85.10
2022-10-09T04:52:59.025Z,85.03
2022-10-09T04:55:26.023Z,84.63
2022-10-09T04:57:52.928Z,83.96
2022-10-09T05:00:19.932Z,83.27
2022-10-09T05:02:47.169Z,83.15
2022-10-09T05:05:14.464Z,83.30
2022-10-09T05:07:41.370Z,82.61
2022-10-09T05:10:08.708Z,81.82
2022-10-09T05:12:35.622Z,81.84
2022-10-09T05:15:02.698Z,82.05
2022-10-09T05:17:30.078Z,81.96
2022-10-09T05:19:57.053Z,80.66
2022-10-09T05:22:24.119Z,80.47
2022-10-09T05:24:51.079Z,79.85
2022-10-09T05:27:17.992Z,80.46
2022-10-09T05:29:44.947Z,79.16
2022-10-09T05:32:11.909Z,78.62
2022-10-09T05:34:38.832Z,78.02
2022-10-09T05:37:05.744Z,76.87
2022-10-09T05:39:32.676Z,76.91
2022-10-09T05:41:59.720Z,76.55
2022-10-09T05:44:26.703Z,73.62
2022-10-09T05:46:53.823Z,71.01
2022-10-09T05:49:20.733Z,68.92
2022-10-09T05:51:47.712Z,66.57
2022-10-09T05:54:17.736Z,65.21
2022-10-09T05:56:45.437Z,66.35
2022-10-09T05:59:19.811Z,66.12
2022-10-09T06:01:49.841Z,66.20
2022-10-09T06:04:22.064Z,65.32
2022-10-09T06:06:50.316Z,65.48
2022-10-09T06:09:23.322Z,63.81
2022-10-09T06:11:51.113Z,63.00
2022-10-09T06:14:18.627Z,61.74
2022-10-09T06:16:45.951Z,58.43
2022-10-09T06:19:15.572Z,58.83
2022-10-09T06:21:43.411Z,59.97
2022-10-09T06:24:20.607Z,59.72
2022-10-09T06:26:49.211Z,60.44
2022-10-09T06:29:16.502Z,58.48
2022-10-09T06:31:43.444Z,58.48
2022-10-09T06:34:11.078Z,56.66
2022-10-09T06:36:38.112Z,57.43
2022-10-09T06:39:07.646Z,57.06
2022-10-09T06:41:35.274Z,56.28
2022-10-09T06:44:16.626Z,56.05
2022-10-09T06:46:45.177Z,54.88
2022-10-09T06:49:12.574Z,53.88
2022-10-09T06:51:39.694Z,54.33
2022-10-09T06:54:13.464Z,53.07
2022-10-09T06:56:40.723Z,53.66
2022-10-09T06:59:08.153Z,54.23
2022-10-09T07:01:35.405Z,51.98
2022-10-09T07:04:07.171Z,51.63
2022-10-09T07:06:38.125Z,50.03
2022-10-09T07:09:09.255Z,49.50
2022-10-09T07:11:49.280Z,48.61
2022-10-09T07:14:17.143Z,47.93
2022-10-09T07:16:46.630Z,48.01
2022-10-09T07:19:15.537Z,48.21
2022-10-09T07:21:44.704Z,48.13
2022-10-09T07:24:12.521Z,47.93
2022-10-09T07:26:42.362Z,46.48
2022-10-09T07:29:11.077Z,45.71
2022-10-09T07:31:38.145Z,45.33
2022-10-09T07:34:06.446Z,45.32
2022-10-09T07:36:33.567Z,45.69
2022-10-09T07:39:00.843Z,45.52
2022-10-09T07:41:29.322Z,46.38
2022-10-09T07:43:56.879Z,45.76
2022-10-09T07:46:29.623Z,45.08
2022-10-09T07:48:59.302Z,45.39
2022-10-09T07:51:29.294Z,45.65
2022-10-09T07:53:57.497Z,46.57
2022-10-09T07:56:30.431Z,45.46
2022-10-09T07:58:59.594Z,46.01
2022-10-09T08:01:30.371Z,44.46
2022-10-09T08:03:58.488Z,44.45
2022-10-09T08:06:25.709Z,42.81
2022-10-09T08:08:54.767Z,40.75
2022-10-09T08:11:23.814Z,39.98
2022-10-09T08:13:51.447Z,40.85
2022-10-09T08:16:20.540Z,40.83
2022-10-09T08:18:48.718Z,41.38
2022-10-09T08:21:18.561Z,39.99
2022-10-09T08:23:46.109Z,40.67
2022-10-09T08:26:18.537Z,40.02
2022-10-09T08:28:53.250Z,38.85
2022-10-09T08:31:20.910Z,38.72
2022-10-09T08:33:48.112Z,37.64
2022-10-09T08:36:17.706Z,37.44
2022-10-09T08:38:47.670Z,35.50
2022-10-09T08:41:33.101Z,32.96
2022-10-09T08:44:10.576Z,31.35
2022-10-09T08:46:57.759Z,29.69
2022-10-09T08:49:57.962Z,29.10
2022-10-09T08:52:49.979Z,27.65
2022-10-09T08:55:28.752Z,28.57
2022-10-09T08:57:57.408Z,27.45
2022-10-09T09:00:28.776Z,26.76
2022-10-09T09:03:41.826Z,25.11
2022-10-09T09:06:56.562Z,24.12
2022-10-09T09:09:52.699Z,24.92
2022-10-09T09:12:44.099Z,24.48
2022-10-09T09:15:20.098Z,25.48
2022-10-09T09:17:59.431Z,24.09
2022-10-09T09:20:42.822Z,25.38
2022-10-09T09:23:15.517Z,24.80
2022-10-09T09:25:45.862Z,24.10
2022-10-09T09:28:20.334Z,25.29
2022-10-09T09:30:55.901Z,25.44
2022-10-09T09:33:25.587Z,25.30
2022-10-09T09:36:20.184Z,25.63
2022-10-09T09:39:26.063Z,25.22
2022-10-09T09:41:36.236Z,24.88
2022-10-09T09:44:05.173Z,23.20
2022-10-09T09:46:32.564Z,25.75
2022-10-09T09:48:59.487Z,25.08
2022-10-09T09:51:31.093Z,24.26
2022-10-09T09:54:01.408Z,25.45
2022-10-09T09:57:10.441Z,26.49
2022-10-09T09:59:36.002Z,25.39
2022-10-09T10:02:13.620Z,26.01
2022-10-09T10:05:08.524Z,27.12
2022-10-09T10:07:38.337Z,28.26
2022-10-09T10:10:08.009Z,29.23
2022-10-09T10:12:41.424Z,29.52
2022-10-09T10:15:22.013Z,31.27
2022-10-09T10:17:55.029Z,31.45
2022-10-09T10:20:22.112Z,32.28
2022-10-09T10:22:55.439Z,33.48
2022-10-09T10:25:28.657Z,33.93
2022-10-09T10:28:06.108Z,34.90
2022-10-09T10:30:35.614Z,35.26
2022-10-09T10:33:17.058Z,34.88
2022-10-09T10:35:44.664Z,35.97
2022-10-09T10:39:00.775Z,35.46
2022-10-09T10:41:40.694Z,35.52
2022-10-09T10:44:16.920Z,35.66
2022-10-09T10:46:53.522Z,35.95
2022-10-09T10:49:22.156Z,35.98
2022-10-09T10:52:07.571Z,36.80
2022-10-09T10:54:42.978Z,36.33
2022-10-09T10:57:15.685Z,37.25
2022-10-09T11:00:01.002Z,36.75
2022-10-09T11:02:56.533Z,37.09
2022-10-09T11:05:43.642Z,37.23
2022-10-09T11:08:39.650Z,37.76
2022-10-09T11:11:29.460Z,37.82
2022-10-09T11:13:56.696Z,37.80
2022-10-09T11:16:37.886Z,37.42
2022-10-09T11:19:07.502Z,37.39
2022-10-09T11:22:08.969Z,37.84
2022-10-09T11:24:38.654Z,37.57
2022-10-09T11:27:30.684Z,37.43
2022-10-09T11:30:02.720Z,37.46
2022-10-09T11:32:45.418Z,37.61
2022-10-09T11:35:12.405Z,38.16
2022-10-09T11:37:42.216Z,38.50
2022-10-09T11:40:17.100Z,38.97
2022-10-09T11:42:54.252Z,39.97
2022-10-09T11:45:24.439Z,40.01
2022-10-09T11:48:16.051Z,40.21
2022-10-09T11:50:54.568Z,40.72
2022-10-09T11:53:25.022Z,40.57
2022-10-09T11:56:09.173Z,41.14
2022-10-09T11:58:36.206Z,41.64
2022-10-09T12:01:21.880Z,42.04
2022-10-09T12:04:00.887Z,42.30
2022-10-09T12:06:29.223Z,41.88
2022-10-09T12:09:00.206Z,42.06
2022-10-09T12:11:28.691Z,42.75
2022-10-09T12:13:58.904Z,42.85
2022-10-09T12:16:40.850Z,43.42
2022-10-09T12:19:25.360Z,43.30
2022-10-09T12:21:55.570Z,43.90
2022-10-09T12:24:26.127Z,43.77
2022-10-09T12:26:55.618Z,43.64
2022-10-09T12:29:31.540Z,44.21
2022-10-09T12:32:05.148Z,44.44
2022-10-09T12:34:37.275Z,44.29
2022-10-09T12:37:17.351Z,45.04
2022-10-09T12:39:45.717Z,44.78
2022-10-09T12:42:38.859Z,45.12
2022-10-09T12:45:06.479Z,45.31
2022-10-09T12:47:35.263Z,45.94
2022-10-09T12:50:19.613Z,47.47
2022-10-09T12:52:59.366Z,50.43
2022-10-09T12:55:26.401Z,50.29
2022-10-09T12:57:54.849Z,51.36
2022-10-09T13:00:21.921Z,53.85
2022-10-09T13:02:49.341Z,54.66
2022-10-09T13:05:17.077Z,56.90
2022-10-09T13:07:52.762Z,57.22
2022-10-09T13:10:23.019Z,57.38
2022-10-09T13:12:53.277Z,57.48
2022-10-09T13:15:37.121Z,59.62
2022-10-09T13:18:21.952Z,61.17
2022-10-09T13:21:23.043Z,62.07
2022-10-09T13:23:50.444Z,61.09
2022-10-09T13:26:24.893Z,62.83
2022-10-09T13:28:52.678Z,64.27
2022-10-09T13:31:20.739Z,64.51
2022-10-09T13:33:48.458Z,66.50
2022-10-09T13:36:17.649Z,67.44
2022-10-09T13:38:45.391Z,67.48
2022-10-09T13:41:17.071Z,68.44
2022-10-09T13:43:44.427Z,67.96
2022-10-09T13:46:11.413Z,69.15
2022-10-09T13:48:38.270Z,69.23
2022-10-09T13:51:06.520Z,70.17
2022-10-09T13:53:33.716Z,70.57
2022-10-09T13:56:01.343Z,70.83
2022-10-09T13:58:28.951Z,70.61
2022-10-09T14:00:58.733Z,70.25
2022-10-09T14:03:28.526Z,69.60
2022-10-09T14:06:00.036Z,70.27
2022-10-09T14:08:26.945Z,70.57
2022-10-09T14:10:54.221Z,70.51
2022-10-09T14:13:21.909Z,70.28
2022-10-09T14:15:49.087Z,70.20
2022-10-09T14:18:16.033Z,71.12
2022-10-09T14:20:42.912Z,72.10
2022-10-09T14:23:09.900Z,71.38
2022-10-09T14:25:37.441Z,72.39
2022-10-09T14:28:04.411Z,72.51
2022-10-09T14:30:32.041Z,74.04
2022-10-09T14:32:59.568Z,74.52
2022-10-09T14:35:26.548Z,75.54
2022-10-09T14:37:53.673Z,76.96
2022-10-09T14:40:20.584Z,77.00
2022-10-09T14:42:47.837Z,78.12
2022-10-09T14:45:14.903Z,78.88
2022-10-09T14:47:41.816Z,78.83
2022-10-09T14:50:09.332Z,78.79
2022-10-09T14:52:36.301Z,79.28
2022-10-09T14:55:03.290Z,79.32
2022-10-09T14:57:35.185Z,80.03
2022-10-09T15:00:04.520Z,80.09
2022-10-09T15:02:33.566Z,80.26
2022-10-09T15:05:00.519Z,80.68
2022-10-09T15:07:28.365Z,81.09
2022-10-09T15:09:56.980Z,81.35
2022-10-09T15:12:23.996Z,81.09
2022-10-09T15:14:50.931Z,81.15
2022-10-09T15:17:17.806Z,81.06
2022-10-09T15:19:44.698Z,81.20
2022-10-09T15:22:11.592Z,81.50
2022-10-09T15:24:38.652Z,82.19
2022-10-09T15:27:05.803Z,82.33
2022-10-09T15:29:32.783Z,82.49
2022-10-09T15:31:59.841Z,82.19
2022-10-09T15:34:26.970Z,82.54
2022-10-09T15:36:53.801Z,83.23
2022-10-09T15:39:20.796Z,83.75
2022-10-09T15:41:47.881Z,83.09
2022-10-09T15:44:17.857Z,83.23
2022-10-09T15:46:46.504Z,83.37
2022-10-09T15:49:13.918Z,83.41
2022-10-09T15:51:42.909Z,83.90
2022-10-09T15:54:11.921Z,83.37
2022-10-09T15:56:40.161Z,84.47
2022-10-09T15:59:09.357Z,84.91
2022-10-09T16:01:36.374Z,84.71
2022-10-09T16:04:03.339Z,85.00
2022-10-09T16:06:30.403Z,85.16
2022-10-09T16:08:58.366Z,85.05
2022-10-09T16:11:26.814Z,84.73
2022-10-09T16:13:54.741Z,85.90
2022-10-09T16:16:25.665Z,85.09
2022-10-09T16:18:53.572Z,85.06
2022-10-09T16:21:24.148Z,85.73
2022-10-09T16:23:55.823Z,86.44
2022-10-09T16:26:26.787Z,86.25
2022-10-09T16:28:54.003Z,85.23
2022-10-09T16:31:25.216Z,85.04
2022-10-09T16:33:52.604Z,85.29
2022-10-09T16:36:19.603Z,85.64
2022-10-09T16:38:47.321Z,86.14
2022-10-09T16:41:18.008Z,86.64
2022-10-09T16:43:47.111Z,85.59
2022-10-09T16:46:29.414Z,86.42
2022-10-09T16:48:57.814Z,85.59
2022-10-09T16:51:34.138Z,86.69
2022-10-09T16:54:03.293Z,86.05
2022-10-09T16:56:33.402Z,86.30
2022-10-09T16:59:03.722Z,86.22
2022-10-09T17:01:30.832Z,87.72
2022-10-09T17:03:58.960Z,86.83
2022-10-09T17:06:27.292Z,86.41
2022-10-09T17:08:56.310Z,86.75
2022-10-09T17:11:25.654Z,86.54
2022-10-09T17:13:56.762Z,86.38
2022-10-09T17:16:27.854Z,86.79
2022-10-09T17:18:55.297Z,86.70
2022-10-09T17:21:22.201Z,86.44
2022-10-09T17:23:53.704Z,86.60
2022-10-09T17:26:22.316Z,86.17
2022-10-09T17:28:49.493Z,87.51
2022-10-09T17:31:22.326Z,86.97
2022-10-09T17:33:52.874Z,86.95
2022-10-09T17:36:22.750Z,86.32
2022-10-09T17:38:51.058Z,87.29
2022-10-09T17:41:21.640Z,86.55
2022-10-09T17:43:48.520Z,86.69
2022-10-09T17:46:15.941Z,86.10
2022-10-09T17:48:46.447Z,87.43
2022-10-09T17:51:20.033Z,86.75
2022-10-09T17:53:48.253Z,86.77
2022-10-09T17:56:15.593Z,87.59
2022-10-09T17:58:44.382Z,87.75
2022-10-09T18:01:12.011Z,87.50
2022-10-09T18:03:38.948Z,86.99
2022-10-09T18:06:08.213Z,86.39
2022-10-09T18:08:35.412Z,88.06
2022-10-09T18:11:07.670Z,87.46
2022-10-09T18:13:37.014Z,88.17
2022-10-09T18:16:08.470Z,87.90
2022-10-09T18:18:35.680Z,87.45
2022-10-09T18:21:08.635Z,87.62
2022-10-09T18:23:36.278Z,88.20
2022-10-09T18:26:11.162Z,89.07
2022-10-09T18:28:38.889Z,88.30
2022-10-09T18:31:11.366Z,88.47
2022-10-09T18:33:38.734Z,88.18
2022-10-09T18:36:14.033Z,88.39
2022-10-09T18:38:40.961Z,87.87
2022-10-09T18:41:08.982Z,88.40
2022-10-09T18:43:36.612Z,88.72
2022-10-09T18:46:03.822Z,88.35
2022-10-09T18:48:33.748Z,88.69
2022-10-09T18:51:02.685Z,89.25
2022-10-09T18:53:31.428Z,88.21
2022-10-09T18:55:59.005Z,87.81
2022-10-09T18:58:26.164Z,88.15
2022-10-09T19:00:53.256Z,88.03
2022-10-09T19:03:20.259Z,89.74
2022-10-09T19:05:47.200Z,88.55
2022-10-09T19:08:14.244Z,89.12
2022-10-09T19:10:41.184Z,88.84
2022-10-09T19:13:08.078Z,88.44
2022-10-09T19:15:35.363Z,88.03
2022-10-09T19:18:02.353Z,88.19
2022-10-09T19:20:29.407Z,87.65
2022-10-09T19:22:56.440Z,87.38
2022-10-09T19:25:23.441Z,87.47
2022-10-09T19:27:50.772Z,87.98
2022-10-09T19:30:18.004Z,87.57
2022-10-09T19:32:45.963Z,87.68
2022-10-09T19:35:12.977Z,87.41
2022-10-09T19:37:39.955Z,87.08
2022-10-09T19:40:07.469Z,87.54
2022-10-09T19:42:34.484Z,86.93
2022-10-09T19:45:01.421Z,87.76
2022-10-09T19:47:29.995Z,87.82
2022-10-09T19:49:56.970Z,86.97
2022-10-09T19:52:23.893Z,87.17
2022-10-09T19:54:50.985Z,86.33
2022-10-09T19:57:17.987Z,87.30
2022-10-09T19:59:45.012Z,86.85
2022-10-09T20:02:11.944Z,86.68
2022-10-09T20:04:39.468Z,86.92
2022-10-09T20:07:11.695Z,86.12
2022-10-09T20:09:39.689Z,86.72
2022-10-09T20:12:08.141Z,87.06
2022-10-09T20:14:35.038Z,86.67
2022-10-09T20:17:01.927Z,86.66
2022-10-09T20:19:31.064Z,86.09
2022-10-09T20:21:58.472Z,86.36
2022-10-09T20:24:25.452Z,85.62
2022-10-09T20:26:53.647Z,86.05
2022-10-09T20:29:20.600Z,85.70
2022-10-09T20:31:48.937Z,85.86
2022-10-09T20:34:16.935Z,86.35
2022-10-09T20:36:43.988Z,86.15
2022-10-09T20:39:13.657Z,85.80
2022-10-09T20:41:42.531Z,85.84
2022-10-09T20:44:11.047Z,86.24
2022-10-09T20:46:39.665Z,86.07
2022-10-09T20:49:10.360Z,86.27
2022-10-09T20:51:38.946Z,86.08
2022-10-09T20:54:07.547Z,86.17
2022-10-09T20:56:35.016Z,86.30
2022-10-09T20:59:03.076Z,85.88
2022-10-09T21:01:30.192Z,85.98
2022-10-09T21:03:59.279Z,85.82
2022-10-09T21:06:27.120Z,86.03
2022-10-09T21:08:54.713Z,85.61
2022-10-09T21:11:22.257Z,85.18
2022-10-09T21:13:50.041Z,85.04
2022-10-09T21:16:23.499Z,85.49
2022-10-09T21:18:58.515Z,85.66
2022-10-09T22:06:02.191Z,84.80
2022-10-09T22:08:29.079Z,84.93
2022-10-09T22:10:56.033Z,84.63
2022-10-09T22:13:22.910Z,84.83
2022-10-09T22:15:51.379Z,84.93
2022-10-09T22:18:19.411Z,85.30
2022-10-09T22:20:49.727Z,85.25
2022-10-09T22:23:20.690Z,84.85
2022-10-09T22:26:05.735Z,84.60
2022-10-09T22:28:33.186Z,84.22
2022-10-09T22:31:02.265Z,84.47
2022-10-09T22:33:29.605Z,84.09
2022-10-09T22:36:22.232Z,84.23
2022-10-09T22:38:49.168Z,84.17
2022-10-09T22:41:19.412Z,84.74
2022-10-09T22:43:49.351Z,84.54
2022-10-09T22:46:25.254Z,83.99
2022-10-09T22:48:52.666Z,84.51
2022-10-09T22:51:21.778Z,83.75
2022-10-09T22:53:50.024Z,84.20
2022-10-09T22:56:20.289Z,83.51
2022-10-09T22:58:48.326Z,83.94
2022-10-09T23:01:25.283Z,84.40
2022-10-09T23:03:52.511Z,83.95
2022-10-09T23:06:20.768Z,83.50
2022-10-09T23:08:48.286Z,83.52
2022-10-09T23:11:16.750Z,83.79
2022-10-09T23:13:45.850Z,84.07
2022-10-09T23:16:15.335Z,84.05
2022-10-09T23:18:43.423Z,84.00
2022-10-09T23:21:14.015Z,84.45
2022-10-09T23:23:44.183Z,84.62
2022-10-09T23:26:14.449Z,83.96
2022-10-09T23:28:42.600Z,83.62
2022-10-09T23:31:12.647Z,84.35
2022-10-09T23:33:41.693Z,84.45
2022-10-09T23:36:11.245Z,84.13
2022-10-09T23:38:38.956Z,84.18
2022-10-09T23:41:08.996Z,84.02
2022-10-09T23:43:38.034Z,83.64
2022-10-09T23:46:06.966Z,83.63
2022-10-09T23:48:34.433Z,83.68
2022-10-09T23:51:01.592Z,84.02
2022-10-09T23:53:28.841Z,83.02
2022-10-09T23:55:55.715Z,83.62
2022-10-09T23:58:23.514Z,83.69
